createdAt,value
2023-01-19T00:01:31.232Z,6.38
2023-01-19T00:03:59.196Z,7.43
2023-01-19T00:06:26.898Z,6.05
2023-01-19T00:08:54.635Z,7.10
2023-01-19T00:11:22.274Z,6.43
2023-01-19T00:13:51.071Z,6.65
2023-01-19T00:16:21.769Z,6.35
2023-01-19T00:18:50.431Z,5.45
2023-01-19T00:21:18.460Z,6.35
2023-01-19T00:23:47.668Z,5.70
2023-01-19T00:26:16.272Z,6.10
2023-01-19T00:28:44.111Z,5.72
2023-01-19T00:31:12.073Z,6.55
2023-01-19T00:33:41.146Z,5.40
2023-01-19T00:36:10.114Z,5.82
2023-01-19T00:38:39.056Z,5.22
2023-01-19T00:41:06.992Z,6.03
2023-01-19T00:43:34.596Z,5.80
2023-01-19T00:46:02.364Z,5.43
2023-01-19T00:48:30.767Z,6.03
2023-01-19T00:51:01.749Z,5.95
2023-01-19T00:53:32.461Z,6.97
2023-01-19T00:56:00.205Z,6.78
2023-01-19T00:58:27.838Z,5.82
2023-01-19T01:00:57.777Z,6.88
2023-01-19T01:03:28.085Z,6.97
2023-01-19T01:05:55.987Z,6.13
2023-01-19T01:08:25.324Z,6.32
2023-01-19T01:10:53.051Z,6.53
2023-01-19T01:13:21.721Z,6.57
2023-01-19T01:15:52.053Z,5.60
2023-01-19T01:18:19.734Z,6.47
2023-01-19T01:20:47.449Z,7.30
2023-01-19T01:23:15.345Z,6.10
2023-01-19T01:25:44.435Z,7.18
2023-01-19T01:28:12.076Z,5.63
2023-01-19T01:30:43.377Z,5.80
2023-01-19T01:33:11.778Z,6.68
2023-01-19T01:35:39.695Z,7.03
2023-01-19T01:38:07.701Z,7.15
2023-01-19T01:40:35.399Z,6.63
2023-01-19T01:43:04.483Z,7.18
2023-01-19T01:45:34.045Z,7.68
2023-01-19T01:48:04.874Z,5.65
2023-01-19T01:50:35.290Z,7.82
2023-01-19T01:53:07.041Z,6.45
2023-01-19T01:55:37.926Z,6.18
2023-01-19T01:58:07.140Z,7.10
2023-01-19T02:00:54.912Z,7.20
2023-01-19T02:03:22.833Z,7.70
2023-01-19T02:05:51.218Z,5.90
2023-01-19T02:08:37.632Z,6.55
2023-01-19T02:11:23.198Z,6.18
2023-01-19T02:13:52.250Z,6.57
2023-01-19T02:16:20.033Z,7.40
2023-01-19T02:18:48.636Z,6.38
2023-01-19T02:21:20.165Z,7.45
2023-01-19T02:23:50.652Z,6.82
2023-01-19T02:26:20.231Z,5.22
2023-01-19T02:28:50.472Z,6.22
2023-01-19T02:31:18.675Z,6.53
2023-01-19T02:33:46.651Z,6.85
2023-01-19T02:36:16.659Z,5.68
2023-01-19T02:38:45.119Z,5.47
2023-01-19T02:41:16.276Z,5.75
2023-01-19T02:43:44.956Z,5.68
2023-01-19T02:46:12.678Z,6.93
2023-01-19T02:48:40.443Z,5.85
2023-01-19T02:51:12.554Z,5.85
2023-01-19T02:53:54.779Z,6.53
2023-01-19T02:56:44.671Z,6.95
2023-01-19T02:59:15.871Z,5.80
2023-01-19T03:02:04.928Z,4.93
2023-01-19T03:04:38.635Z,5.90
2023-01-19T03:07:09.696Z,6.45
2023-01-19T03:09:42.207Z,5.10
2023-01-19T03:12:16.061Z,6.35
2023-01-19T03:14:47.448Z,6.72
2023-01-19T03:17:16.197Z,6.60
2023-01-19T03:19:44.818Z,6.18
2023-01-19T03:22:14.289Z,5.93
2023-01-19T03:24:44.449Z,6.22
2023-01-19T03:27:15.743Z,5.43
2023-01-19T03:29:44.087Z,5.70
2023-01-19T03:32:15.741Z,6.15
2023-01-19T03:34:44.339Z,6.05
2023-01-19T03:37:13.021Z,6.30
2023-01-19T03:39:40.943Z,6.20
2023-01-19T03:42:11.230Z,6.85
2023-01-19T03:44:43.222Z,6.55
2023-01-19T03:47:12.180Z,7.28
2023-01-19T03:49:40.416Z,6.00
2023-01-19T03:52:08.057Z,5.85
2023-01-19T03:54:36.470Z,6.65
2023-01-19T03:57:04.289Z,7.38
2023-01-19T03:59:32.004Z,5.97
2023-01-19T04:02:01.219Z,7.05
2023-01-19T04:04:28.929Z,6.63
2023-01-19T04:06:57.055Z,6.55
2023-01-19T04:09:24.849Z,6.15
2023-01-19T04:11:52.770Z,6.80
2023-01-19T04:14:20.528Z,6.00
2023-01-19T04:16:48.152Z,7.25
2023-01-19T04:19:17.235Z,6.05
2023-01-19T04:21:44.896Z,7.07
2023-01-19T04:24:12.595Z,6.68
2023-01-19T04:26:40.949Z,7.05
2023-01-19T04:29:08.620Z,6.07
2023-01-19T04:31:36.957Z,8.77
2023-01-19T04:34:04.688Z,7.05
2023-01-19T04:36:33.744Z,6.32
2023-01-19T04:39:01.380Z,6.88
2023-01-19T04:41:30.324Z,6.82
2023-01-19T04:43:58.785Z,5.78
2023-01-19T04:46:26.477Z,6.60
2023-01-19T04:48:54.197Z,6.95
2023-01-19T04:51:21.846Z,5.72
2023-01-19T04:53:51.114Z,6.70
2023-01-19T04:56:18.774Z,5.95
2023-01-19T04:58:46.415Z,8.27
2023-01-19T05:01:14.117Z,5.85
2023-01-19T05:03:41.819Z,7.15
2023-01-19T05:06:09.596Z,6.72
2023-01-19T05:08:37.505Z,6.68
2023-01-19T05:11:06.682Z,5.65
2023-01-19T05:13:34.558Z,5.47
2023-01-19T05:16:03.347Z,7.13
2023-01-19T05:18:35.979Z,6.85
2023-01-19T05:21:03.812Z,7.90
2023-01-19T05:23:32.651Z,8.07
2023-01-19T05:26:00.820Z,7.47
2023-01-19T05:28:30.104Z,6.95
2023-01-19T05:30:57.873Z,6.88
2023-01-19T05:33:26.128Z,6.18
2023-01-19T05:35:54.381Z,7.45
2023-01-19T05:38:34.279Z,8.13
2023-01-19T05:41:02.850Z,6.45
2023-01-19T05:43:31.865Z,7.63
2023-01-19T05:45:59.631Z,6.30
2023-01-19T05:48:27.305Z,7.45
2023-01-19T05:50:58.054Z,8.32
2023-01-19T05:53:25.715Z,7.30
2023-01-19T05:55:53.461Z,7.03
2023-01-19T05:58:21.142Z,6.97
2023-01-19T06:00:50.167Z,7.80
2023-01-19T06:03:18.078Z,6.70
2023-01-19T06:05:45.790Z,7.30
2023-01-19T06:08:13.411Z,6.43
2023-01-19T06:10:41.361Z,6.53
2023-01-19T06:13:09.814Z,7.45
2023-01-19T06:15:38.563Z,6.40
2023-01-19T06:18:07.652Z,7.47
2023-01-19T06:20:35.283Z,6.72
2023-01-19T06:23:03.348Z,6.90
2023-01-19T06:25:31.327Z,7.18
2023-01-19T06:27:59.039Z,5.93
2023-01-19T06:30:27.040Z,7.40
2023-01-19T06:32:54.952Z,8.00
2023-01-19T06:35:24.003Z,8.43
2023-01-19T06:37:51.864Z,7.88
2023-01-19T06:40:19.617Z,7.55
2023-01-19T06:42:47.288Z,7.43
2023-01-19T06:45:14.930Z,6.57
2023-01-19T06:47:42.638Z,7.15
2023-01-19T06:50:10.912Z,8.13
2023-01-19T06:52:42.446Z,7.00
2023-01-19T06:55:11.191Z,6.68
2023-01-19T06:57:40.210Z,6.78
2023-01-19T07:00:09.106Z,6.95
2023-01-19T07:02:37.035Z,7.25
2023-01-19T07:05:06.987Z,7.70
2023-01-19T07:07:34.661Z,7.90
2023-01-19T07:10:03.698Z,8.00
2023-01-19T07:12:31.608Z,8.02
2023-01-19T07:14:59.985Z,9.10
2023-01-19T07:17:27.672Z,7.90
2023-01-19T07:19:55.303Z,9.18
2023-01-19T07:22:22.994Z,8.63
2023-01-19T07:24:50.714Z,8.90
2023-01-19T07:27:19.730Z,9.27
2023-01-19T07:29:47.495Z,8.73
2023-01-19T07:32:15.144Z,10.35
2023-01-19T07:34:42.818Z,9.13
2023-01-19T07:37:10.478Z,9.00
2023-01-19T07:39:38.132Z,6.20
2023-01-19T07:42:05.786Z,8.57
2023-01-19T07:44:34.775Z,7.43
2023-01-19T07:47:03.521Z,7.47
2023-01-19T07:49:31.326Z,9.43
2023-01-19T07:51:59.074Z,7.93
2023-01-19T07:54:26.736Z,7.95
2023-01-19T07:56:55.834Z,9.43
2023-01-19T07:59:23.492Z,10.07
2023-01-19T08:01:54.119Z,8.20
2023-01-19T08:04:21.965Z,8.95
2023-01-19T08:06:49.677Z,8.98
2023-01-19T08:09:17.919Z,10.00
2023-01-19T08:11:45.680Z,8.23
2023-01-19T08:14:13.340Z,8.50
2023-01-19T08:16:40.989Z,9.88
2023-01-19T08:19:10.027Z,9.63
2023-01-19T08:21:38.953Z,9.38
2023-01-19T08:24:06.933Z,9.85
2023-01-19T08:26:36.172Z,10.35
2023-01-19T08:29:04.556Z,8.00
2023-01-19T08:31:32.376Z,10.10
2023-01-19T08:34:00.246Z,10.90
2023-01-19T08:36:30.404Z,9.65
2023-01-19T08:38:58.072Z,9.88
2023-01-19T08:41:25.755Z,10.60
2023-01-19T08:43:53.449Z,10.82
2023-01-19T08:46:21.945Z,8.27
2023-01-19T08:48:50.356Z,10.70
2023-01-19T08:51:18.240Z,9.68
2023-01-19T08:53:47.456Z,10.27
2023-01-19T08:56:15.419Z,10.38
2023-01-19T08:58:43.733Z,11.05
2023-01-19T09:01:16.841Z,10.38
2023-01-19T09:03:44.667Z,10.60
2023-01-19T09:06:13.198Z,10.20
2023-01-19T09:08:40.895Z,9.07
2023-01-19T09:11:12.388Z,10.20
2023-01-19T09:13:40.145Z,9.88
2023-01-19T09:16:08.754Z,10.80
2023-01-19T09:18:36.780Z,9.35
2023-01-19T09:21:04.990Z,11.57
2023-01-19T09:23:32.709Z,9.68
2023-01-19T09:26:01.145Z,9.50
2023-01-19T09:28:30.578Z,9.25
2023-01-19T09:30:58.324Z,11.27
2023-01-19T09:33:26.047Z,10.10
2023-01-19T09:35:53.714Z,11.13
2023-01-19T09:38:22.460Z,10.68
2023-01-19T09:40:51.810Z,11.43
2023-01-19T09:43:24.374Z,11.73
2023-01-19T09:45:55.285Z,10.73
2023-01-19T09:48:29.638Z,12.75
2023-01-19T09:50:59.216Z,10.50
2023-01-19T09:53:30.825Z,9.88
2023-01-19T09:55:59.052Z,11.10
2023-01-19T09:58:26.844Z,10.75
2023-01-19T10:00:59.595Z,10.98
2023-01-19T10:03:27.372Z,11.45
2023-01-19T10:05:56.915Z,10.95
2023-01-19T10:08:27.098Z,11.05
2023-01-19T10:10:55.538Z,11.43
2023-01-19T10:13:26.830Z,9.85
2023-01-19T10:16:00.698Z,10.52
2023-01-19T10:18:34.600Z,8.38
2023-01-19T10:21:05.557Z,10.68
2023-01-19T10:23:37.036Z,12.15
2023-01-19T10:26:09.338Z,9.15
2023-01-19T10:28:37.661Z,9.88
2023-01-19T10:31:09.555Z,9.52
2023-01-19T10:33:37.548Z,9.52
2023-01-19T10:36:07.006Z,9.00
2023-01-19T10:38:35.634Z,8.80
2023-01-19T10:41:06.718Z,9.30
2023-01-19T10:43:39.237Z,8.48
2023-01-19T10:46:08.802Z,8.20
2023-01-19T10:48:41.948Z,7.78
2023-01-19T10:51:10.130Z,7.30
2023-01-19T10:53:38.365Z,9.77
2023-01-19T10:56:17.602Z,9.02
2023-01-19T10:58:45.484Z,9.50
2023-01-19T11:01:15.899Z,8.35
2023-01-19T11:03:43.730Z,8.23
2023-01-19T11:06:21.185Z,9.05
2023-01-19T11:08:50.343Z,9.18
2023-01-19T11:11:18.651Z,8.23
2023-01-19T11:13:46.481Z,7.63
2023-01-19T11:16:18.833Z,8.63
2023-01-19T11:18:47.198Z,8.48
2023-01-19T11:21:16.274Z,12.60
2023-01-19T11:23:47.016Z,9.73
2023-01-19T11:26:16.368Z,9.95
2023-01-19T11:28:47.413Z,8.55
2023-01-19T11:31:20.528Z,8.13
2023-01-19T11:33:50.964Z,8.82
2023-01-19T11:36:21.044Z,10.45
2023-01-19T11:38:50.639Z,10.27
2023-01-19T11:41:20.051Z,9.27
2023-01-19T11:43:50.261Z,9.77
2023-01-19T11:46:19.735Z,10.35
2023-01-19T11:48:49.812Z,9.00
2023-01-19T11:51:20.549Z,9.23
2023-01-19T11:53:50.418Z,10.10
2023-01-19T11:56:20.562Z,10.75
2023-01-19T11:58:48.203Z,10.10
2023-01-19T12:01:21.304Z,9.93
2023-01-19T12:03:54.712Z,9.98
2023-01-19T12:06:24.981Z,9.75
2023-01-19T12:08:55.854Z,9.80
2023-01-19T12:11:25.191Z,9.15
2023-01-19T12:13:53.906Z,11.55
2023-01-19T12:16:23.575Z,11.75
2023-01-19T12:18:53.602Z,10.95
2023-01-19T12:21:21.463Z,8.35
2023-01-19T12:23:52.239Z,11.23
2023-01-19T12:26:28.372Z,10.38
2023-01-19T12:28:58.688Z,10.55
2023-01-19T12:31:28.275Z,9.95
2023-01-19T12:33:56.603Z,8.95
2023-01-19T12:36:37.614Z,9.63
2023-01-19T12:39:07.301Z,8.98
2023-01-19T12:41:35.618Z,9.95
2023-01-19T12:44:16.750Z,10.50
2023-01-19T12:46:47.079Z,9.40
2023-01-19T12:49:19.950Z,8.52
2023-01-19T12:51:48.412Z,9.35
2023-01-19T12:54:21.313Z,9.23
2023-01-19T12:56:49.034Z,8.75
2023-01-19T12:59:23.323Z,8.80
2023-01-19T13:02:05.905Z,9.75
2023-01-19T13:04:35.013Z,9.05
2023-01-19T13:07:13.699Z,9.65
2023-01-19T13:09:43.161Z,9.15
2023-01-19T13:12:26.785Z,8.88
2023-01-19T13:15:09.347Z,9.60
2023-01-19T13:17:40.122Z,9.32
2023-01-19T13:20:22.611Z,9.82
2023-01-19T13:22:52.607Z,8.70
2023-01-19T13:25:27.703Z,9.93
2023-01-19T13:27:55.829Z,9.32
2023-01-19T13:30:27.015Z,8.23
2023-01-19T13:32:55.642Z,10.15
2023-01-19T13:35:23.696Z,8.85
2023-01-19T13:37:55.005Z,10.27
2023-01-19T13:40:23.773Z,9.90
2023-01-19T13:42:53.072Z,9.23
2023-01-19T13:45:28.836Z,8.52
2023-01-19T13:47:58.155Z,9.27
2023-01-19T13:50:27.191Z,8.77
2023-01-19T13:52:58.809Z,11.15
2023-01-19T13:55:28.281Z,11.48
2023-01-19T13:57:56.123Z,7.95
2023-01-19T14:00:24.904Z,7.88
2023-01-19T14:02:54.617Z,9.63
2023-01-19T14:05:23.403Z,9.60
2023-01-19T14:08:01.790Z,9.85
2023-01-19T14:10:31.301Z,8.77
2023-01-19T14:12:59.820Z,10.90
2023-01-19T14:15:27.679Z,9.35
2023-01-19T14:18:23.515Z,10.05
2023-01-19T14:20:55.086Z,9.25
2023-01-19T14:23:41.452Z,8.35
2023-01-19T14:26:23.927Z,8.73
2023-01-19T14:28:53.332Z,8.63
2023-01-19T14:31:21.849Z,9.90
2023-01-19T14:33:50.496Z,9.63
2023-01-19T14:36:29.965Z,9.73
2023-01-19T14:38:59.273Z,8.70
2023-01-19T14:41:28.825Z,10.00
2023-01-19T14:43:57.888Z,10.35
2023-01-19T14:46:25.829Z,8.88
2023-01-19T14:48:56.510Z,7.88
2023-01-19T14:51:25.296Z,8.27
2023-01-19T14:53:57.994Z,8.52
2023-01-19T14:56:27.183Z,10.65
2023-01-19T14:58:54.894Z,8.60
2023-01-19T15:01:24.503Z,10.80
2023-01-19T15:03:52.268Z,8.85
2023-01-19T15:06:21.201Z,10.05
2023-01-19T15:08:50.179Z,7.97
2023-01-19T15:11:23.579Z,7.85
2023-01-19T15:13:51.559Z,8.38
2023-01-19T15:16:20.217Z,9.15
2023-01-19T15:18:49.278Z,8.25
2023-01-19T15:21:19.635Z,8.73
2023-01-19T15:23:48.520Z,9.75
2023-01-19T15:26:17.543Z,7.93
2023-01-19T15:28:45.757Z,8.65
2023-01-19T15:31:15.789Z,7.97
2023-01-19T15:33:43.513Z,10.38
2023-01-19T15:36:16.957Z,8.68
2023-01-19T15:38:45.510Z,9.00
2023-01-19T15:41:14.363Z,10.00
2023-01-19T15:43:42.060Z,7.28
2023-01-19T15:46:12.277Z,9.57
2023-01-19T15:48:39.931Z,9.38
2023-01-19T15:51:07.645Z,10.70
2023-01-19T15:53:36.646Z,9.20
2023-01-19T15:56:04.415Z,8.10
2023-01-19T15:58:32.052Z,9.40
2023-01-19T16:00:59.829Z,8.90
2023-01-19T16:03:27.531Z,8.13
2023-01-19T16:05:55.211Z,10.18
2023-01-19T16:08:22.915Z,8.35
2023-01-19T16:10:51.907Z,8.05
2023-01-19T16:13:19.533Z,8.00
2023-01-19T16:15:47.181Z,8.57
2023-01-19T16:18:15.121Z,7.47
2023-01-19T16:20:42.834Z,8.20
2023-01-19T16:23:15.977Z,7.93
2023-01-19T16:25:44.058Z,6.97
2023-01-19T16:28:13.190Z,9.55
2023-01-19T16:30:40.897Z,7.15
2023-01-19T16:33:11.720Z,8.27
2023-01-19T16:35:40.229Z,8.63
2023-01-19T16:38:09.367Z,8.85
2023-01-19T16:40:37.092Z,7.45
2023-01-19T16:43:04.745Z,8.25
2023-01-19T16:45:33.785Z,7.78
2023-01-19T16:48:01.474Z,8.27
2023-01-19T16:50:29.095Z,7.43
2023-01-19T16:52:57.303Z,7.13
2023-01-19T16:55:24.980Z,8.18
2023-01-19T16:57:52.663Z,9.55
2023-01-19T17:00:20.813Z,9.00
2023-01-19T17:02:49.853Z,8.10
2023-01-19T17:05:17.702Z,7.75
2023-01-19T17:07:45.374Z,8.38
2023-01-19T17:10:13.332Z,9.13
2023-01-19T17:12:41.155Z,8.10
2023-01-19T17:15:10.351Z,10.63
2023-01-19T17:17:38.190Z,10.25
2023-01-19T17:20:08.008Z,10.73
2023-01-19T17:22:35.749Z,8.88
2023-01-19T17:25:03.527Z,9.70
2023-01-19T17:27:31.323Z,10.80
2023-01-19T17:29:58.969Z,10.75
2023-01-19T17:32:26.622Z,11.57
2023-01-19T17:34:54.248Z,11.15
2023-01-19T17:37:23.259Z,10.68
2023-01-19T17:39:50.905Z,10.55
2023-01-19T17:42:18.581Z,11.90
2023-01-19T17:44:46.200Z,11.95
2023-01-19T17:47:14.248Z,13.30
2023-01-19T17:49:41.906Z,10.52
2023-01-19T17:52:09.583Z,11.25
2023-01-19T17:54:38.603Z,12.63
2023-01-19T17:57:06.893Z,11.32
2023-01-19T17:59:34.777Z,10.35
2023-01-19T18:02:02.497Z,10.65
2023-01-19T18:04:32.142Z,12.35
2023-01-19T18:07:00.104Z,11.70
2023-01-19T18:09:27.841Z,13.52
2023-01-19T18:11:56.812Z,11.73
2023-01-19T18:14:24.579Z,11.20
2023-01-19T18:16:52.236Z,12.60
2023-01-19T18:19:23.289Z,11.05
2023-01-19T18:21:50.993Z,11.55
2023-01-19T18:24:20.071Z,12.32
2023-01-19T18:26:47.896Z,11.68
2023-01-19T18:29:19.301Z,9.85
2023-01-19T18:31:47.054Z,11.23
2023-01-19T18:34:14.755Z,11.43
2023-01-19T18:36:43.309Z,10.07
2023-01-19T18:39:10.935Z,10.43
2023-01-19T18:41:41.719Z,10.02
2023-01-19T18:44:09.637Z,12.15
2023-01-19T18:46:39.262Z,11.57
2023-01-19T18:49:07.435Z,11.02
2023-01-19T18:51:35.118Z,10.60
2023-01-19T18:54:03.051Z,10.35
2023-01-19T18:56:30.731Z,10.20
2023-01-19T18:58:58.510Z,11.77
2023-01-19T19:01:27.757Z,8.65
2023-01-19T19:03:58.006Z,8.32
2023-01-19T19:06:27.191Z,10.43
2023-01-19T19:08:55.682Z,12.23
2023-01-19T19:11:24.138Z,10.60
2023-01-19T19:13:55.374Z,10.80
2023-01-19T19:16:23.230Z,11.65
2023-01-19T19:18:50.936Z,8.80
2023-01-19T19:21:20.863Z,11.13
2023-01-19T19:23:50.787Z,10.38
2023-01-19T19:26:18.525Z,10.40
2023-01-19T19:28:47.377Z,9.48
2023-01-19T19:31:16.630Z,7.75
2023-01-19T19:33:44.336Z,10.05
2023-01-19T19:36:12.841Z,11.13
2023-01-19T19:38:42.930Z,13.23
2023-01-19T19:41:12.380Z,11.70
2023-01-19T19:43:40.467Z,11.45
2023-01-19T19:46:09.166Z,12.60
2023-01-19T19:48:39.343Z,11.65
2023-01-19T19:51:17.716Z,13.27
2023-01-19T19:53:51.196Z,12.57
2023-01-19T19:56:21.228Z,15.02
2023-01-19T19:58:49.088Z,16.83
2023-01-19T20:01:17.810Z,17.30
2023-01-19T20:03:45.732Z,15.50
2023-01-19T20:06:14.362Z,15.73
2023-01-19T20:08:42.182Z,12.75
2023-01-19T20:11:12.090Z,12.02
2023-01-19T20:13:40.439Z,13.82
2023-01-19T20:16:10.280Z,12.18
2023-01-19T20:18:38.578Z,12.40
2023-01-19T20:21:11.899Z,11.05
2023-01-19T20:23:39.733Z,12.50
2023-01-19T20:26:07.905Z,10.43
2023-01-19T20:28:37.327Z,10.13
2023-01-19T20:31:11.792Z,9.55
2023-01-19T20:33:39.786Z,12.00
2023-01-19T20:36:07.730Z,10.00
2023-01-19T20:38:35.617Z,11.10
2023-01-19T20:41:03.331Z,10.10
2023-01-19T20:43:31.343Z,12.23
2023-01-19T20:46:00.475Z,11.02
2023-01-19T20:48:28.182Z,9.55
2023-01-19T20:50:59.159Z,12.07
2023-01-19T20:53:27.061Z,11.65
2023-01-19T20:55:54.688Z,10.05
2023-01-19T20:58:23.070Z,10.88
2023-01-19T21:00:51.105Z,11.48
2023-01-19T21:03:20.370Z,9.13
2023-01-19T21:05:48.715Z,10.10
2023-01-19T21:08:16.584Z,9.85
2023-01-19T21:10:45.518Z,10.77
2023-01-19T21:13:13.193Z,10.50
2023-01-19T21:15:40.857Z,10.32
2023-01-19T21:18:10.858Z,10.65
2023-01-19T21:20:39.877Z,10.30
2023-01-19T21:23:07.565Z,9.70
2023-01-19T21:25:37.237Z,10.90
2023-01-19T21:28:04.932Z,10.30
2023-01-19T21:30:32.591Z,11.57
2023-01-19T21:33:02.252Z,10.02
2023-01-19T21:35:30.746Z,9.85
2023-01-19T21:38:00.432Z,8.80
2023-01-19T21:40:28.158Z,10.35
2023-01-19T21:42:55.851Z,8.80
2023-01-19T21:45:23.638Z,9.20
2023-01-19T21:47:51.467Z,9.82
2023-01-19T21:50:19.559Z,9.25
2023-01-19T21:52:47.248Z,9.85
2023-01-19T21:55:16.319Z,11.10
2023-01-19T21:57:43.988Z,9.88
2023-01-19T22:00:12.097Z,11.68
2023-01-19T22:02:40.048Z,9.50
2023-01-19T22:05:08.186Z,11.80
2023-01-19T22:07:36.138Z,9.68
2023-01-19T22:10:03.822Z,10.80
2023-01-19T22:12:32.816Z,10.95
2023-01-19T22:15:00.481Z,12.65
2023-01-19T22:17:28.079Z,12.77
2023-01-19T22:19:55.707Z,11.55
2023-01-19T22:22:23.407Z,12.35
2023-01-19T22:24:51.136Z,10.80
2023-01-19T22:27:19.509Z,12.27
2023-01-19T22:29:49.313Z,11.52
2023-01-19T22:32:16.952Z,13.55
2023-01-19T22:34:44.589Z,10.65
2023-01-19T22:37:12.284Z,10.15
2023-01-19T22:39:39.941Z,12.77
2023-01-19T22:42:07.606Z,10.82
2023-01-19T22:44:35.245Z,11.38
2023-01-19T22:47:04.345Z,11.10
2023-01-19T22:49:31.924Z,11.70
2023-01-19T22:51:59.719Z,12.23
2023-01-19T22:54:29.878Z,11.88
2023-01-19T22:56:57.517Z,11.73
2023-01-19T22:59:25.339Z,12.75
2023-01-19T23:01:53.402Z,13.05
2023-01-19T23:04:22.523Z,11.88
2023-01-19T23:06:51.994Z,11.43
2023-01-19T23:09:19.744Z,13.10
2023-01-19T23:11:50.465Z,9.98
2023-01-19T23:14:18.910Z,13.35
2023-01-19T23:16:47.278Z,11.60
2023-01-19T23:19:17.125Z,10.95
2023-01-19T23:21:46.691Z,11.48
2023-01-19T23:24:14.340Z,11.88
2023-01-19T23:26:42.153Z,11.07
2023-01-19T23:29:12.172Z,12.80
2023-01-19T23:31:40.850Z,11.10
2023-01-19T23:34:09.501Z,13.32
2023-01-19T23:36:38.134Z,12.15
2023-01-19T23:39:09.871Z,12.60
2023-01-19T23:41:37.581Z,11.82
2023-01-19T23:44:05.352Z,12.43
2023-01-19T23:46:33.447Z,15.05
2023-01-19T23:49:01.149Z,12.07
2023-01-19T23:51:30.042Z,10.65
2023-01-19T23:53:57.714Z,11.75
2023-01-19T23:56:27.494Z,13.95
2023-01-19T23:58:55.701Z,12.75
